LIRNLIRA

Guest
Details From LIRN - Napoli-Capodichino "Ugo Niutta"
To LIRA - Roma-Ciampino "G. B. Pastine"
Flight Number -
Tags generated
Created
Modified
Stats Distance 95 nm / 175 km
Max Altitude 4,500 ft / 1,372 m
Waypoints 3
Social Downloads 2
Likes 0
Share

Download

Looking for another format? Having issues loading an existing format? Contact us
Advertisement - Login to hide

Notes

Basic altitude profile: - Ascent Rate: 2500ft/min - Ascent Speed: 250kts - Cruise Altitude: 35000ft - Cruise Speed: 420kts - Descent Rate: 1500ft/min - Descent Speed: 250kts Options: - Use NATs: yes - Use PACOTS: yes - Use low airways: yes - Use high airways: yes

Route

LIRN LAT LIRA

ID Type Via Altitude (ft/m) Position (lat/lon) Dist (leg/tot) Name
O LIRN APT - 0 / 0 40.88600 / 14.29080 - / 0 nm Napoli-Capodichino "Ugo Niutta"
LAT VOR - 4,500 / 1,372 41.54110 / 12.91810 73 / 73 nm LATINA
O LIRA APT - 0 / 0 41.79920 / 12.59490 21 / 94 nm Roma-Ciampino "G. B. Pastine"

Altitude Profile

Advertisement - Login to hide

LIRN

Details ICAO LIRN (NAP)
Name Napoli-Capodichino "Ugo Niutta"
Region Italy
Timezone Europe/Rome (UTC+2.0)
Stats Elevation 292 ft / 89 m (AMSL)
Location 40.886000° 14.290800°
Runways 1
Magnetic Variation 3.702° E

METAR

LIRN 221520Z VRB03KT 9999 FEW030 BKN050 17/15 Q1017 NOSIG

Decode

TAF

TAF TAF LIRN 221100Z 2212/2312 18010KT 9999 SCT030 TEMPO 2212/2215 TSRA BECMG 2217/2219 VRB05KT TEMPO 2306/2312 SHRA

Decode

Departure Runways

ID Width Length Bearing (true/mag) Surface Threshold Overrun Markings Lighting
06 148 ft / 45 m 8,630 ft / 2,630 m 58.04° / 54.33° ASPHALT 1,312 ft / 400 m 217 ft / 66 m PREC-APP CENTERLINE EDGE THRESHOLD MALSF REIL-OMNI
24 148 ft / 45 m 8,630 ft / 2,630 m 238.05° / 234.35° ASPHALT 607 ft / 185 m 230 ft / 70 m PREC-APP CENTERLINE EDGE THRESHOLD MALSF REIL-OMNI

LIRA

Details ICAO LIRA (CIA)
Name Roma-Ciampino "G. B. Pastine"
Region Italy
Timezone Europe/Rome (UTC+2.0)
Stats Elevation 424 ft / 129 m (AMSL)
Location 41.799200° 12.594900°
Runways 1
Magnetic Variation 3.461° E

METAR

LIRA 221520Z 19009KT 150V220 9999 SCT030 21/17 Q1015

Decode

TAF

TAF LIRA 221100Z 2212/2312 11006KT 9999 SCT030 TEMPO 2212/2215 SHRA BECMG 2218/2220 VRB05KT TEMPO 2300/2306 4000 BR

Decode

Destination Runways

ID Width Length Bearing (true/mag) Surface Threshold Overrun Markings Lighting
15 151 ft / 46 m 7,235 ft / 2,205 m 152.77° / 149.31° ASPHALT 0 ft / 0 m 0 ft / 0 m PREC-APP CENTERLINE EDGE THRESHOLD CALVERT REIL-OMNI
33 151 ft / 46 m 7,235 ft / 2,205 m 332.78° / 329.32° ASPHALT 0 ft / 0 m 0 ft / 0 m PREC-APP CENTERLINE EDGE THRESHOLD REIL-OMNI

Approach Navaids

Runway Type Ident Frequency Range Bearing (true/mag) Slope Elevation
15 MM MM - - 152.79° / 149.33 ° - 427 ft / 130 m (AMSL)
15 GS CIA 109.90 MHz 10 nm / 19 km 152.78° / 149.32 ° 3.00° 425 ft / 130 m (AMSL)
15 OM OM - - 152.79° / 149.33 ° - 427 ft / 130 m (AMSL)
15 LOC-ILS CIA 109.90 MHz 18 nm / 33 km 152.78° / 149.32 ° - 425 ft / 130 m (AMSL)

Popular Alternatives